Time;durP1;ratioP1;P1;durP2;ratioP2;P2;SDS_P1;SDS_P2;PMS_P1;PMS_P2;Temp;Humidity;BMP_temperature;BMP_pressure;BME280_temperature;BME280_humidity;BME280_pressure;Samples;Min_cycle;Max_cycle;Signal;HPM_P1;HPM_P2
2022/02/05 00:02:30;;;;;;;;;;;;;;;3.36;76.46;100886.34;6277190;23;19915;-75
2022/02/05 00:04:59;;;;;;;;;;;;;;;3.35;76.30;100895.50;6264883;23;19914;-75
2022/02/05 00:07:27;;;;;;;;;;;;;;;3.31;76.27;100895.09;6252018;23;19915;-73
2022/02/05 00:12:44;;;;;;;;;;;;;;;3.21;76.33;100894.66;6257172;23;19912;-75
2022/02/05 00:40:05;;;;;;;;;;;;;;;3.01;77.84;100927.03;6221765;23;20226;-75
2022/02/05 00:42:39;;;;;;;;;;;;;;;2.94;77.85;100914.34;6244627;23;19946;-76
2022/02/05 00:45:07;;;;;;;;;;;;;;;2.88;78.00;100912.47;6244803;23;19918;-76
2022/02/05 00:47:35;;;;;;;;;;;;;;;2.84;78.19;100911.19;6216451;23;19907;-75
2022/02/05 00:50:13;;;;;;;;;;;;;;;;;;;;;
2022/02/05 00:52:54;;;;;;;;;;;;;;;;;;;;;
2022/02/05 00:55:26;;;;;;;;;;;;;;;2.72;78.93;100907.44;6215399;23;19986;-75
2022/02/05 00:58:06;;;;;;;;;;;;;;;;;;;;;
2022/02/05 01:00:39;;;;;;;;;;;;;;;2.72;79.63;100920.94;6216363;23;20303;-73
2022/02/05 01:03:06;;;;;;;;;;;;;;;2.79;79.17;100924.50;6216653;23;20298;-73
2022/02/05 01:05:34;;;;;;;;;;;;;;;2.80;79.46;100939.63;6210598;23;20322;-76
2022/02/05 01:07:59;;;;;;;;;;;;;;;2.84;79.25;100943.63;6217172;23;19987;-72
2022/02/05 01:10:28;;;;;;;;;;;;;;;2.84;79.06;100949.00;6215232;23;19950;-73
2022/02/05 01:13:12;;;;;;;;;;;;;;;2.83;78.73;100952.75;6242628;23;19911;-72
2022/02/05 01:15:46;;;;;;;;;;;;;;;2.81;78.43;100954.81;6242384;23;20257;-70
2022/02/05 01:18:19;;;;;;;;;;;;;;;2.81;78.44;100960.22;6216634;23;19916;-73
2022/02/05 01:23:14;;;;;;;;;;;;;;;2.78;78.26;100955.22;6255708;22;19907;-74
2022/02/05 01:25:46;;;;;;;;;;;;;;;2.74;78.10;100959.38;6216064;23;19919;-74
2022/02/05 01:28:22;;;;;;;;;;;;;;;2.71;77.81;100951.66;6240529;23;19916;-74
2022/02/05 01:30:56;;;;;;;;;;;;;;;2.64;78.32;100953.50;6241042;23;19938;-75
2022/02/05 01:33:50;;;;;;;;;;;;;;;2.60;78.77;100953.91;6217946;23;20041;-75
2022/02/05 01:50:28;;;;;;;;;;;;;;;2.56;80.44;100949.94;6249669;23;19918;-75
2022/02/05 01:53:16;;;;;;;;;;;;;;;2.62;80.24;100970.72;6256985;22;19907;-78
2022/02/05 01:55:56;;;;;;;;;;;;;;;2.64;80.02;100969.72;6256980;23;19930;-79
2022/02/05 02:06:57;;;;;;;;;;;;;;;2.56;79.43;100982.34;6244957;23;19913;-74
2022/02/05 02:09:42;;;;;;;;;;;;;;;2.50;79.43;100977.75;6240173;23;19923;-75
2022/02/05 02:12:15;;;;;;;;;;;;;;;2.51;79.47;100987.50;6238250;23;19912;-74
2022/02/05 02:15:11;;;;;;;;;;;;;;;2.49;79.31;100989.56;6242609;23;19974;-74
2022/02/05 02:23:30;;;;;;;;;;;;;;;2.41;78.86;101000.50;6135102;23;19965;-74
2022/02/05 02:26:02;;;;;;;;;;;;;;;2.37;78.74;101007.34;6223034;23;19911;-74
2022/02/05 02:28:43;;;;;;;;;;;;;;;2.34;78.94;100999.66;6217731;23;20472;-74
2022/02/05 02:31:15;;;;;;;;;;;;;;;2.30;79.14;100999.19;6246305;23;19955;-75
2022/02/05 02:33:45;;;;;;;;;;;;;;;2.29;79.50;100997.53;6217329;23;19938;-74
2022/02/05 02:36:20;;;;;;;;;;;;;;;2.31;79.59;101008.13;6245978;23;19907;-75
2022/02/05 02:38:52;;;;;;;;;;;;;;;2.34;79.33;101010.47;6244620;23;19907;-72
2022/02/05 02:41:40;;;;;;;;;;;;;;;;;;;;;
2022/02/05 02:44:03;;;;;;;;;;;;;;;2.37;79.43;101008.19;6230242;23;19939;-73
2022/02/05 02:46:28;;;;;;;;;;;;;;;2.39;80.15;101007.97;6193925;23;20342;-71
2022/02/05 02:48:54;;;;;;;;;;;;;;;2.33;80.46;101008.78;6216658;23;20261;-72
2022/02/05 02:57:10;;;;;;;;;;;;;;;2.47;80.44;101007.84;6245321;23;20290;-72
2022/02/05 02:59:48;;;;;;;;;;;;;;;2.53;80.45;101020.53;6240474;23;19990;-74
2022/02/05 03:02:17;;;;;;;;;;;;;;;2.52;80.11;101013.47;6213809;23;19911;-73
2022/02/05 03:04:52;;;;;;;;;;;;;;;2.57;79.82;101013.72;6215391;23;19915;-73
2022/02/05 03:07:17;;;;;;;;;;;;;;;2.54;79.57;101019.50;6217293;23;19911;-72
2022/02/05 03:09:44;;;;;;;;;;;;;;;2.54;79.44;101033.00;6217088;23;19953;-72
2022/02/05 03:12:09;;;;;;;;;;;;;;;2.51;79.78;101030.72;6243247;23;19918;-72
2022/02/05 03:14:37;;;;;;;;;;;;;;;2.45;79.16;101026.09;6240415;23;19950;-73
2022/02/05 03:17:15;;;;;;;;;;;;;;;2.44;79.00;101024.44;6244679;23;19908;-72
2022/02/05 03:19:41;;;;;;;;;;;;;;;2.40;79.08;101023.16;6241528;23;19977;-72
2022/02/05 03:22:18;;;;;;;;;;;;;;;2.39;79.22;101032.28;6232642;23;20370;-73
2022/02/05 03:24:43;;;;;;;;;;;;;;;2.38;79.35;101025.19;6281105;22;19915;-71
2022/02/05 03:27:11;;;;;;;;;;;;;;;2.39;79.42;101024.19;6268598;22;19914;-72
2022/02/05 03:29:37;;;;;;;;;;;;;;;2.42;79.50;101018.38;6287328;22;19986;-73
2022/02/05 03:32:24;;;;;;;;;;;;;;;2.43;79.21;101023.56;6277820;22;19922;-72
2022/02/05 03:34:50;;;;;;;;;;;;;;;2.43;79.41;101030.84;6275701;22;19907;-72
2022/02/05 03:37:18;;;;;;;;;;;;;;;2.40;79.08;101028.56;6275448;22;19907;-72
2022/02/05 03:39:43;;;;;;;;;;;;;;;2.37;79.22;101027.06;6248009;22;19911;-73
2022/02/05 03:42:09;;;;;;;;;;;;;;;2.38;79.76;101026.06;6248886;22;19907;-72
2022/02/05 03:44:34;;;;;;;;;;;;;;;2.37;79.06;101026.25;6248663;22;19911;-73
2022/02/05 03:47:02;;;;;;;;;;;;;;;2.30;79.21;101022.66;6276870;22;19907;-74
2022/02/05 03:49:33;;;;;;;;;;;;;;;2.27;79.82;101019.31;6275875;22;20323;-76
2022/02/05 03:51:59;;;;;;;;;;;;;;;2.22;79.25;101019.09;6275206;22;19908;-75
2022/02/05 03:54:26;;;;;;;;;;;;;;;2.19;79.72;101026.72;6223678;22;20013;-74
2022/02/05 03:56:54;;;;;;;;;;;;;;;2.16;79.57;101027.97;6248223;22;19918;-74
2022/02/05 03:59:19;;;;;;;;;;;;;;;2.16;80.01;101027.13;6246998;22;19934;-74
2022/02/05 04:01:44;;;;;;;;;;;;;;;2.13;79.89;101028.34;6248299;22;20326;-75
2022/02/05 04:04:10;;;;;;;;;;;;;;;2.08;80.08;101026.22;6247758;22;20210;-75
2022/02/05 04:06:38;;;;;;;;;;;;;;;2.09;79.89;101027.09;6249268;22;19911;-74
2022/02/05 04:09:13;;;;;;;;;;;;;;;2.13;79.57;101017.53;6245280;22;19915;-75
2022/02/05 04:17:11;;;;;;;;;;;;;;;2.04;79.04;101018.72;6248235;22;20558;-74
2022/02/05 04:19:36;;;;;;;;;;;;;;;2.01;79.45;101019.13;6223432;22;19923;-73
2022/02/05 04:22:02;;;;;;;;;;;;;;;1.94;79.53;101013.66;6218374;23;19926;-74
2022/02/05 04:24:27;;;;;;;;;;;;;;;1.95;79.48;101019.91;6271552;22;19907;-74
2022/02/05 04:26:55;;;;;;;;;;;;;;;1.93;79.63;101009.31;6244543;22;20318;-73
2022/02/05 04:29:23;;;;;;;;;;;;;;;1.89;79.99;101016.94;6247316;22;19912;-73
2022/02/05 04:31:53;;;;;;;;;;;;;;;1.95;80.35;101003.72;6253111;22;19959;-73
2022/02/05 04:34:18;;;;;;;;;;;;;;;2.03;79.79;101023.28;6253321;22;19907;-73
2022/02/05 04:36:43;;;;;;;;;;;;;;;2.10;79.54;101023.34;6281700;22;19965;-74
2022/02/05 04:39:13;;;;;;;;;;;;;;;2.15;79.45;101031.69;6252399;22;19915;-74
2022/02/05 05:03:38;;;;;;;;;;;;;;;1.99;79.07;101005.00;6224152;22;19923;-74
2022/02/05 05:11:34;;;;;;;;;;;;;;;1.98;77.92;101014.13;6252141;22;19987;-74
2022/02/05 05:21:54;;;;;;;;;;;;;;;1.81;77.80;101013.53;6269770;22;19922;-74
2022/02/05 05:24:20;;;;;;;;;;;;;;;1.79;78.37;101005.66;6200524;23;19926;-75
2022/02/05 05:26:45;;;;;;;;;;;;;;;1.76;77.86;100991.72;6219928;23;19912;-76
2022/02/05 05:29:11;;;;;;;;;;;;;;;1.73;78.06;100987.56;6219662;23;20017;-75
2022/02/05 05:31:36;;;;;;;;;;;;;;;1.71;78.87;100986.94;6217977;23;19983;-75
2022/02/05 05:34:06;;;;;;;;;;;;;;;1.71;78.63;100987.75;6247832;23;19961;-75
2022/02/05 05:36:32;;;;;;;;;;;;;;;1.74;78.55;100992.75;6216266;23;19986;-74
2022/02/05 05:39:01;;;;;;;;;;;;;;;1.76;77.82;101000.66;6216143;23;19943;-75
2022/02/05 05:41:26;;;;;;;;;;;;;;;1.73;78.84;101006.44;6215369;23;20226;-74
2022/02/05 05:46:52;;;;;;;;;;;;;;;1.87;79.12;101008.22;6221619;23;19919;-75
2022/02/05 05:49:34;;;;;;;;;;;;;;;1.91;78.41;101000.56;6241020;23;19915;-75
2022/02/05 05:51:59;;;;;;;;;;;;;;;1.89;78.79;101003.44;6240997;23;19907;-74
2022/02/05 05:54:24;;;;;;;;;;;;;;;1.95;78.69;101001.03;6212833;23;19916;-74
2022/02/05 05:56:50;;;;;;;;;;;;;;;1.99;78.68;101002.31;6199833;23;19912;-74
2022/02/05 05:59:16;;;;;;;;;;;;;;;1.99;78.53;100999.59;6258380;23;19927;-73
2022/02/05 06:01:44;;;;;;;;;;;;;;;1.98;77.95;100997.94;6262741;23;19916;-73
2022/02/05 06:04:14;;;;;;;;;;;;;;;1.95;78.20;100992.94;6249639;23;20295;-74
2022/02/05 06:06:39;;;;;;;;;;;;;;;1.88;78.12;100993.72;6224205;23;19918;-73
2022/02/05 06:09:04;;;;;;;;;;;;;;;1.82;78.25;100994.47;6214839;23;20360;-75
2022/02/05 06:11:30;;;;;;;;;;;;;;;1.82;78.71;100994.47;6241058;23;20374;-74
2022/02/05 06:13:55;;;;;;;;;;;;;;;1.83;78.21;100998.84;6218614;23;19990;-75
2022/02/05 06:16:28;;;;;;;;;;;;;;;1.83;79.01;101006.94;6210723;23;19921;-74
2022/02/05 06:18:53;;;;;;;;;;;;;;;1.89;78.70;101000.75;6216304;23;19999;-74
2022/02/05 06:21:18;;;;;;;;;;;;;;;1.91;78.10;101009.50;6218380;22;19926;-74
2022/02/05 06:23:51;;;;;;;;;;;;;;;1.92;78.62;101005.75;6217320;23;19919;-75
2022/02/05 06:26:17;;;;;;;;;;;;;;;1.93;78.56;101012.00;6221025;23;20694;-75
2022/02/05 06:28:42;;;;;;;;;;;;;;;1.89;78.64;101006.16;6226567;23;19908;-75
2022/02/05 06:31:07;;;;;;;;;;;;;;;1.88;79.29;100999.09;6228529;23;19914;-74
2022/02/05 06:33:35;;;;;;;;;;;;;;;1.90;79.07;100997.03;6224999;23;19916;-75
2022/02/05 06:36:01;;;;;;;;;;;;;;;1.92;78.82;100988.75;6252094;23;19912;-76
2022/02/05 06:38:26;;;;;;;;;;;;;;;1.98;78.63;100981.75;6219541;23;19911;-75
2022/02/05 06:40:54;;;;;;;;;;;;;;;2.00;78.43;100979.66;6248134;23;19919;-75
2022/02/05 06:43:22;;;;;;;;;;;;;;;1.99;78.68;100978.03;6247285;23;19914;-75
2022/02/05 06:45:47;;;;;;;;;;;;;;;2.02;77.87;100966.84;6220340;23;20302;-76
2022/02/05 06:48:20;;;;;;;;;;;;;;;1.99;78.17;100964.53;6246922;23;19935;-76
2022/02/05 06:50:46;;;;;;;;;;;;;;;2.01;78.44;100970.56;6217228;23;19947;-76
2022/02/05 06:53:14;;;;;;;;;;;;;;;2.07;78.59;100972.47;6220848;23;19962;-76
2022/02/05 06:55:44;;;;;;;;;;;;;;;2.11;78.41;100971.03;6219309;23;19907;-76
2022/02/05 06:58:09;;;;;;;;;;;;;;;2.08;78.09;100974.97;6221504;23;19908;-76
2022/02/05 07:00:37;;;;;;;;;;;;;;;2.08;78.43;100974.97;6193725;23;19927;-74
2022/02/05 07:03:03;;;;;;;;;;;;;;;2.11;78.39;100976.44;6246389;23;19908;-74
2022/02/05 07:05:31;;;;;;;;;;;;;;;2.10;77.90;100985.56;6248246;23;19908;-76
2022/02/05 07:07:56;;;;;;;;;;;;;;;2.12;78.26;100988.06;6247013;23;19915;-75
2022/02/05 07:10:24;;;;;;;;;;;;;;;2.17;78.21;100986.44;6223253;23;20239;-75
2022/02/05 07:13:04;;;;;;;;;;;;;;;2.20;78.43;101002.25;6245856;23;19911;-75
2022/02/05 07:15:34;;;;;;;;;;;;;;;2.26;78.75;100990.69;6267400;22;19919;-75
2022/02/05 07:18:17;;;;;;;;;;;;;;;2.34;78.82;100986.16;6250077;23;19935;-76
2022/02/05 07:20:53;;;;;;;;;;;;;;;2.46;78.37;100989.97;6264790;23;19919;-75
2022/02/05 07:31:16;;;;;;;;;;;;;;;2.83;76.94;100985.16;6253428;22;19962;-77
2022/02/05 07:33:51;;;;;;;;;;;;;;;2.86;77.10;100987.47;6277271;22;19961;-73
2022/02/05 07:36:17;;;;;;;;;;;;;;;2.91;76.67;100995.81;6279133;22;19907;-73
2022/02/05 07:38:45;;;;;;;;;;;;;;;2.95;76.63;100994.38;6252224;22;19919;-74
2022/02/05 07:41:10;;;;;;;;;;;;;;;2.95;76.47;101005.19;6280935;22;19919;-72
2022/02/05 07:43:38;;;;;;;;;;;;;;;3.00;76.12;101001.03;6286172;22;19908;-75
2022/02/05 07:46:10;;;;;;;;;;;;;;;3.01;76.14;101011.66;6272182;22;19907;-77
2022/02/05 07:48:36;;;;;;;;;;;;;;;3.03;76.19;101012.25;6259455;22;19908;-76
2022/02/05 07:51:01;;;;;;;;;;;;;;;3.04;75.82;101010.38;6279836;22;19907;-74
2022/02/05 07:53:34;;;;;;;;;;;;;;;3.01;75.99;101005.38;6282493;22;19919;-75
2022/02/05 07:56:16;;;;;;;;;;;;;;;;;;;;;
2022/02/05 07:58:44;;;;;;;;;;;;;;;2.99;75.73;101016.41;6286731;22;19950;-78
2022/02/05 08:01:10;;;;;;;;;;;;;;;3.01;75.77;101010.78;6261244;22;19938;-77
2022/02/05 08:03:37;;;;;;;;;;;;;;;3.05;75.95;101014.75;6258083;22;19915;-78
2022/02/05 08:06:14;;;;;;;;;;;;;;;3.10;75.88;101006.91;6260113;22;19912;-76
2022/02/05 08:08:50;;;;;;;;;;;;;;;3.12;75.83;101002.13;6228762;22;19960;-76
2022/02/05 08:11:20;;;;;;;;;;;;;;;3.17;75.66;101013.16;6285725;22;19908;-76
2022/02/05 08:13:51;;;;;;;;;;;;;;;3.22;75.55;101005.25;6259611;22;20367;-77
2022/02/05 08:19:06;;;;;;;;;;;;;;;;;;;;;
2022/02/05 08:21:32;;;;;;;;;;;;;;;3.34;75.67;101018.19;6284854;22;20317;-78
2022/02/05 08:24:00;;;;;;;;;;;;;;;3.46;75.35;101020.13;6233281;22;19911;-76
2022/02/05 08:26:32;;;;;;;;;;;;;;;3.59;75.32;101011.19;6234113;22;19911;-78
2022/02/05 08:29:20;;;;;;;;;;;;;;;;;;;;;
2022/02/05 08:32:06;;;;;;;;;;;;;;;3.88;75.15;101016.44;6275602;22;19918;-78
2022/02/05 08:34:32;;;;;;;;;;;;;;;4.03;75.08;101019.78;6246038;22;20345;-77
2022/02/05 08:36:58;;;;;;;;;;;;;;;4.20;74.72;101020.16;6256969;22;19911;-79
2022/02/05 08:39:24;;;;;;;;;;;;;;;4.45;74.32;101014.09;6225501;22;20299;-79
2022/02/05 08:41:49;;;;;;;;;;;;;;;4.73;74.40;101016.53;6276534;22;19911;-76
2022/02/05 08:44:17;;;;;;;;;;;;;;;4.97;73.38;101017.72;6277671;22;19915;-78
2022/02/05 08:46:42;;;;;;;;;;;;;;;5.19;72.71;101014.72;6277439;22;20319;-80
2022/02/05 08:49:18;;;;;;;;;;;;;;;;;;;;;
2022/02/05 08:51:46;;;;;;;;;;;;;;;5.47;70.26;101005.38;6279447;22;19982;-79
2022/02/05 08:54:14;;;;;;;;;;;;;;;5.58;69.96;101012.84;6250764;22;20376;-78
2022/02/05 08:56:42;;;;;;;;;;;;;;;5.70;69.81;101016.50;6278236;22;19934;-81
2022/02/05 08:59:13;;;;;;;;;;;;;;;6.02;70.22;101008.38;6253085;22;19919;-79
2022/02/05 09:02:05;;;;;;;;;;;;;;;6.28;69.05;101011.91;6278386;22;19934;-79
2022/02/05 09:07:11;;;;;;;;;;;;;;;6.24;68.20;101016.13;6252389;22;19911;-78
2022/02/05 09:09:50;;;;;;;;;;;;;;;6.17;68.13;101005.31;6248104;22;20242;-76
2022/02/05 09:12:32;;;;;;;;;;;;;;;6.13;68.54;101009.50;6224918;22;19938;-79
2022/02/05 09:14:58;;;;;;;;;;;;;;;6.15;68.78;101006.56;6250070;22;19941;-77
2022/02/05 09:17:23;;;;;;;;;;;;;;;6.33;68.94;101009.34;6248473;22;19908;-78
2022/02/05 09:19:50;;;;;;;;;;;;;;;6.60;68.24;101003.63;6274554;22;19912;-77
2022/02/05 09:22:16;;;;;;;;;;;;;;;6.80;68.24;100993.41;6249348;22;20168;-78
2022/02/05 09:24:41;;;;;;;;;;;;;;;7.28;68.37;100993.63;6249529;22;20405;-77
2022/02/05 09:27:10;;;;;;;;;;;;;;;7.88;66.80;100998.19;6220260;22;19918;-77
2022/02/05 09:29:45;;;;;;;;;;;;;;;8.61;65.79;100990.66;6268202;22;19911;-75
2022/02/05 09:32:11;;;;;;;;;;;;;;;8.95;64.03;100999.03;6242373;22;19960;-77
2022/02/05 09:34:38;;;;;;;;;;;;;;;9.50;63.55;100991.34;6274209;22;20230;-77
2022/02/05 09:37:04;;;;;;;;;;;;;;;10.02;61.30;100999.34;6269250;22;19907;-77
2022/02/05 09:39:34;;;;;;;;;;;;;;;10.20;59.53;101001.00;6216010;22;20219;-79
2022/02/05 09:42:01;;;;;;;;;;;;;;;9.96;58.89;100992.97;6242704;22;19915;-74
2022/02/05 09:44:29;;;;;;;;;;;;;;;9.58;59.13;100982.75;6268329;22;20049;-73
2022/02/05 09:47:02;;;;;;;;;;;;;;;9.29;60.13;100984.66;6237940;22;19982;-74
2022/02/05 09:49:27;;;;;;;;;;;;;;;8.99;60.87;100974.81;6267921;22;19907;-78
2022/02/05 09:52:12;;;;;;;;;;;;;;;8.75;61.19;100974.88;6250046;22;19990;-79
2022/02/05 09:54:38;;;;;;;;;;;;;;;8.59;61.89;100971.00;6277114;22;19907;-78
2022/02/05 09:57:06;;;;;;;;;;;;;;;8.49;62.72;100973.50;6276584;22;19929;-77
2022/02/05 10:02:56;;;;;;;;;;;;;;;8.42;63.39;100970.84;6150122;23;20284;-77
2022/02/05 10:05:32;;;;;;;;;;;;;;;;;;;;;
2022/02/05 10:08:18;;;;;;;;;;;;;;;8.46;63.32;100961.16;6253761;22;19978;-78
2022/02/05 10:10:45;;;;;;;;;;;;;;;8.49;63.49;100954.41;6278109;22;19966;-78
2022/02/05 10:13:10;;;;;;;;;;;;;;;8.49;62.90;100955.22;6279351;22;20586;-79
2022/02/05 10:15:37;;;;;;;;;;;;;;;8.47;63.40;100967.44;6277158;22;19907;-79
2022/02/05 10:18:03;;;;;;;;;;;;;;;8.50;63.23;100962.34;6249070;22;19914;-80
2022/02/05 10:20:29;;;;;;;;;;;;;;;8.54;63.05;100963.53;6251186;22;20453;-79
2022/02/05 10:22:54;;;;;;;;;;;;;;;8.59;63.90;100954.63;6251538;22;19930;-78
2022/02/05 10:25:26;;;;;;;;;;;;;;;8.76;64.01;100952.00;6272860;22;19912;-76
2022/02/05 10:27:52;;;;;;;;;;;;;;;9.32;64.43;100930.44;6226367;22;19911;-80
2022/02/05 10:30:21;;;;;;;;;;;;;;;10.28;61.98;100939.63;6250867;22;19993;-79
2022/02/05 10:32:57;;;;;;;;;;;;;;;11.23;59.42;100944.94;6278722;22;19907;-80
2022/02/05 10:35:34;;;;;;;;;;;;;;;12.57;56.33;100932.25;6277378;22;19915;-79
2022/02/05 10:38:29;;;;;;;;;;;;;;;13.48;53.08;100943.00;6252992;22;19957;-79
2022/02/05 10:41:02;;;;;;;;;;;;;;;14.53;51.13;100937.94;6276159;22;19954;-77
2022/02/05 10:43:32;;;;;;;;;;;;;;;15.39;48.50;100938.69;6252067;22;19907;-78
2022/02/05 10:45:57;;;;;;;;;;;;;;;15.93;45.96;100947.09;6275559;22;20348;-78
2022/02/05 10:48:24;;;;;;;;;;;;;;;16.26;44.70;100955.63;6277917;22;19986;-78
2022/02/05 10:51:18;;;;;;;;;;;;;;;16.48;43.85;100947.66;6275860;22;19938;-78
2022/02/05 10:53:50;;;;;;;;;;;;;;;17.05;43.33;100955.28;6278682;22;19911;-79
2022/02/05 10:56:30;;;;;;;;;;;;;;;17.48;41.29;100958.00;6251489;22;19954;-79
2022/02/05 11:07:22;;;;;;;;;;;;;;;18.13;38.69;100968.28;6281624;22;19994;-79
2022/02/05 11:09:49;;;;;;;;;;;;;;;18.29;38.73;100952.22;6255906;22;20237;-80
2022/02/05 11:19:54;;;;;;;;;;;;;;;19.41;36.14;100947.44;6292702;22;20222;-79
2022/02/05 11:22:20;;;;;;;;;;;;;;;19.35;34.47;100938.44;6252992;22;19920;-79
2022/02/05 11:24:56;;;;;;;;;;;;;;;19.18;35.24;100932.72;6281335;22;19988;-79
2022/02/05 11:27:25;;;;;;;;;;;;;;;18.84;35.67;100920.13;6281689;22;19911;-79
2022/02/05 11:29:50;;;;;;;;;;;;;;;18.49;36.10;100914.22;6252174;22;19911;-79
2022/02/05 11:32:16;;;;;;;;;;;;;;;18.03;36.73;100907.59;6229987;22;19911;-79
2022/02/05 11:34:49;;;;;;;;;;;;;;;17.35;36.77;100909.00;6249560;22;19929;-79
2022/02/05 11:37:15;;;;;;;;;;;;;;;16.51;38.88;100915.88;6255059;22;20328;-77
2022/02/05 11:39:47;;;;;;;;;;;;;;;15.38;41.01;100914.97;6254738;22;19911;-75
2022/02/05 11:42:35;;;;;;;;;;;;;;;14.61;43.58;100929.13;6288617;22;19976;-80
2022/02/05 11:45:20;;;;;;;;;;;;;;;13.87;45.42;100909.47;6285788;22;19930;-79
2022/02/05 11:48:02;;;;;;;;;;;;;;;13.07;47.58;100903.34;6254250;22;19922;-77
2022/02/05 11:50:37;;;;;;;;;;;;;;;12.46;49.57;100897.66;6283437;22;20314;-78
2022/02/05 11:53:17;;;;;;;;;;;;;;;12.11;50.46;100897.19;6282011;22;19915;-77
2022/02/05 11:55:49;;;;;;;;;;;;;;;11.85;51.16;100893.44;6280424;22;19911;-78
2022/02/05 11:58:35;;;;;;;;;;;;;;;11.79;52.11;100883.53;6237406;22;19959;-77
2022/02/05 12:01:03;;;;;;;;;;;;;;;11.76;52.61;100889.53;6262920;22;19915;-80
2022/02/05 12:03:31;;;;;;;;;;;;;;;11.93;51.97;100883.88;6273504;22;19941;-78
2022/02/05 12:06:02;;;;;;;;;;;;;;;12.03;52.35;100894.94;6266435;22;19965;-77
2022/02/05 12:08:28;;;;;;;;;;;;;;;12.19;51.12;100860.22;6265151;22;19911;-76
2022/02/05 12:10:56;;;;;;;;;;;;;;;12.33;51.71;100861.38;6259740;22;19912;-77
2022/02/05 12:13:23;;;;;;;;;;;;;;;12.72;51.20;100863.75;6263667;22;19922;-77
2022/02/05 12:16:12;;;;;;;;;;;;;;;13.00;49.52;100869.84;6266727;22;19907;-75
2022/02/05 12:19:00;;;;;;;;;;;;;;;13.04;49.61;100854.50;6295153;22;19927;-76
2022/02/05 12:21:28;;;;;;;;;;;;;;;12.85;50.03;100856.06;6298674;22;19915;-78
2022/02/05 12:26:31;;;;;;;;;;;;;;;12.92;51.18;100845.66;6297253;22;19919;-78
2022/02/05 12:29:00;;;;;;;;;;;;;;;13.61;50.44;100846.31;6287693;22;20285;-79
2022/02/05 12:31:25;;;;;;;;;;;;;;;14.81;47.53;100859.44;6282223;22;19934;-76
2022/02/05 12:33:59;;;;;;;;;;;;;;;15.56;45.04;100838.22;6281813;22;20318;-77
2022/02/05 12:36:48;;;;;;;;;;;;;;;15.75;43.71;100824.53;6280964;22;20230;-77
2022/02/05 12:39:25;;;;;;;;;;;;;;;16.24;43.68;100820.72;6252533;22;20284;-79
2022/02/05 12:42:00;;;;;;;;;;;;;;;16.75;42.71;100810.94;6280093;22;19908;-79
2022/02/05 12:44:38;;;;;;;;;;;;;;;17.54;41.59;100801.97;6254416;22;20514;-77
2022/02/05 12:47:08;;;;;;;;;;;;;;;18.74;39.53;100812.31;6257200;22;20373;-77
2022/02/05 12:52:31;;;;;;;;;;;;;;;20.12;35.59;100818.31;6137239;23;19967;-76
2022/02/05 12:54:59;;;;;;;;;;;;;;;19.82;35.09;100804.16;6143180;22;20027;-77
2022/02/05 12:57:46;;;;;;;;;;;;;;;20.05;35.60;100808.50;6250745;22;20477;-76
2022/02/05 13:00:12;;;;;;;;;;;;;;;20.59;33.88;100815.81;6277282;22;20306;-77
2022/02/05 13:02:37;;;;;;;;;;;;;;;20.49;34.31;100810.59;6253007;22;20313;-77
2022/02/05 13:05:03;;;;;;;;;;;;;;;20.77;34.52;100799.22;6278076;22;19989;-75
2022/02/05 13:07:29;;;;;;;;;;;;;;;20.81;33.62;100805.72;6275670;22;19911;-76
2022/02/05 13:10:03;;;;;;;;;;;;;;;20.06;34.04;100792.66;6274169;22;19915;-74
2022/02/05 13:12:35;;;;;;;;;;;;;;;18.74;36.05;100798.47;6249133;22;20014;-76
2022/02/05 13:15:17;;;;;;;;;;;;;;;;;;;;;
2022/02/05 13:18:02;;;;;;;;;;;;;;;;;;;;;
2022/02/05 13:39:25;;;;;;;;;;;;;;;15.82;44.70;100765.19;6268564;22;19919;-77
2022/02/05 13:41:53;;;;;;;;;;;;;;;15.81;45.43;100754.47;6276013;22;19918;-76
2022/02/05 13:44:24;;;;;;;;;;;;;;;16.51;44.71;100762.09;6247419;22;19911;-76
2022/02/05 13:50:11;;;;;;;;;;;;;;;18.43;40.51;100761.22;6259037;22;19927;-77
2022/02/05 13:52:41;;;;;;;;;;;;;;;18.74;39.08;100748.63;6286192;22;19907;-77
2022/02/05 13:55:13;;;;;;;;;;;;;;;18.94;39.45;100747.31;6260190;22;19979;-77
2022/02/05 13:58:02;;;;;;;;;;;;;;;18.64;39.49;100757.97;6259781;22;19911;-76
2022/02/05 14:03:43;;;;;;;;;;;;;;;;;;;;;
2022/02/05 14:09:34;;;;;;;;;;;;;;;18.11;41.11;100734.50;6165443;23;19909;-74
2022/02/05 14:12:42;;;;;;;;;;;;;;;;;;;;;
2022/02/05 14:16:06;;;;;;;;;;;;;;;;;;;;;
2022/02/05 14:18:52;;;;;;;;;;;;;;;;;;;;;
2022/02/05 14:25:27;;;;;;;;;;;;;;;;;;;;;
2022/02/05 14:35:20;;;;;;;;;;;;;;;;;;;;;
2022/02/05 14:43:46;;;;;;;;;;;;;;;12.81;52.02;100685.66;6146301;23;19897;-76
2022/02/05 14:55:25;;;;;;;;;;;;;;;;;;;;;
2022/02/05 15:01:05;;;;;;;;;;;;;;;12.66;52.69;100667.28;6173276;23;19964;-75
2022/02/05 15:04:02;;;;;;;;;;;;;;;12.87;52.42;100661.78;6249036;23;19922;-76
2022/02/05 15:16:45;;;;;;;;;;;;;;;;;;;;;
2022/02/05 15:22:44;;;;;;;;;;;;;;;10.96;59.44;100652.09;5824321;24;19920;-76
2022/02/05 15:53:50;;;;;;;;;;;;;;;;;;;;;
2022/02/05 16:06:03;;;;;;;;;;;;;;;;;;;;;
2022/02/05 16:08:59;;;;;;;;;;;;;;;10.76;61.85;100596.19;5875733;24;19956;-77
2022/02/05 16:11:47;;;;;;;;;;;;;;;10.76;61.66;100604.38;5866334;24;19916;-78
2022/02/05 16:14:43;;;;;;;;;;;;;;;10.72;61.65;100602.41;5878602;24;19919;-75
2022/02/05 16:17:19;;;;;;;;;;;;;;;;;;;;;
2022/02/05 16:23:26;;;;;;;;;;;;;;;;;;;;;
2022/02/05 16:26:31;;;;;;;;;;;;;;;;;;;;;
2022/02/05 16:28:57;;;;;;;;;;;;;;;10.59;60.91;100570.91;6237324;22;19942;-74
2022/02/05 16:31:35;;;;;;;;;;;;;;;;;;;;;
2022/02/05 16:34:10;;;;;;;;;;;;;;;10.51;61.14;100577.66;6276585;22;19982;-74
2022/02/05 16:36:37;;;;;;;;;;;;;;;10.51;61.18;100577.66;6247843;22;20245;-76
2022/02/05 16:39:03;;;;;;;;;;;;;;;10.51;61.45;100561.25;6271321;22;19923;-74
2022/02/05 16:41:29;;;;;;;;;;;;;;;10.48;61.53;100568.09;6247916;22;19994;-73
2022/02/05 16:43:54;;;;;;;;;;;;;;;10.46;61.97;100563.97;6275062;22;20231;-76
2022/02/05 16:46:21;;;;;;;;;;;;;;;10.39;62.84;100577.03;6247115;22;19993;-74
2022/02/05 16:48:58;;;;;;;;;;;;;;;;;;;;;
2022/02/05 16:51:25;;;;;;;;;;;;;;;10.29;62.66;100558.59;6275048;22;20013;-75
2022/02/05 16:53:51;;;;;;;;;;;;;;;10.31;62.97;100557.25;6247570;22;20576;-75
2022/02/05 16:56:21;;;;;;;;;;;;;;;10.34;62.49;100557.84;6274293;22;19946;-72
2022/02/05 16:58:46;;;;;;;;;;;;;;;10.35;62.76;100548.56;6247035;22;19908;-74
2022/02/05 17:01:12;;;;;;;;;;;;;;;10.31;62.63;100546.31;6243655;22;20404;-73
2022/02/05 17:03:37;;;;;;;;;;;;;;;10.30;62.54;100535.66;6272497;22;19918;-74
2022/02/05 17:06:10;;;;;;;;;;;;;;;10.27;62.92;100536.97;6244936;22;20234;-73
2022/02/05 17:08:47;;;;;;;;;;;;;;;10.21;63.00;100524.38;6274023;22;19914;-72
2022/02/05 17:11:22;;;;;;;;;;;;;;;10.14;63.15;100531.97;6245459;22;19977;-74
2022/02/05 17:13:56;;;;;;;;;;;;;;;10.11;63.55;100524.28;6248285;22;20001;-74
2022/02/05 17:16:45;;;;;;;;;;;;;;;10.07;63.51;100531.34;6256059;22;19933;-74
2022/02/05 17:19:11;;;;;;;;;;;;;;;10.08;63.19;100538.47;6251694;22;19955;-75
2022/02/05 17:21:37;;;;;;;;;;;;;;;10.05;63.25;100519.88;6292609;22;20232;-74
2022/02/05 17:24:02;;;;;;;;;;;;;;;10.11;63.61;100516.09;6294155;22;20051;-72
2022/02/05 17:26:45;;;;;;;;;;;;;;;10.11;63.41;100510.63;6278180;22;19911;-73
2022/02/05 17:29:11;;;;;;;;;;;;;;;10.10;63.31;100503.50;6217874;22;20326;-76
2022/02/05 17:31:57;;;;;;;;;;;;;;;10.03;62.90;100513.81;6246863;22;19913;-76
2022/02/05 17:34:25;;;;;;;;;;;;;;;10.07;63.00;100520.41;6271579;22;20250;-75
2022/02/05 17:36:50;;;;;;;;;;;;;;;10.14;62.52;100518.31;6247927;22;19958;-75
2022/02/05 17:39:15;;;;;;;;;;;;;;;10.02;62.62;100520.41;6250622;22;19915;-75
2022/02/05 17:41:43;;;;;;;;;;;;;;;10.10;62.61;100525.38;6224928;22;19919;-76
2022/02/05 17:44:08;;;;;;;;;;;;;;;10.14;62.42;100526.50;6227152;22;19916;-76
2022/02/05 17:46:36;;;;;;;;;;;;;;;10.20;61.98;100525.44;6278677;22;19965;-76
2022/02/05 17:49:01;;;;;;;;;;;;;;;10.27;61.51;100526.06;6275899;22;19982;-74
2022/02/05 17:51:26;;;;;;;;;;;;;;;10.29;61.44;100551.22;6247858;22;19934;-76
2022/02/05 17:53:54;;;;;;;;;;;;;;;10.35;61.29;100510.28;6242279;22;19973;-72
2022/02/05 17:56:20;;;;;;;;;;;;;;;10.38;61.18;100515.22;6273550;22;19919;-73